Flagler Beach, Florida
Current Conditions -  °F | °C
As of 8:53 AM on Friday 19 Dec 2014 (Local Time) from KDAB Reporting Station
Broken Clouds Broken Clouds  
Wind Chill: 56°   Ceiling: 25000
Heat Index: 56°   Visibility: 10mi
Dew Point: 47°   Wind: 3mph
Humidity: 72%   Direction: 340°NNW
Pressure: 30.15"   Gusts: NA
Location:  29.47°N, 81.13°W
Report Text: KDAB 191353Z 34003KT 10SM SCT150 BKN250 13/08 A3015 RMK AO2 SLP208 T01330083
Loading
Personal Weather Stations






























Interactive Weather Map New forecast layout! Learn more

10-Day Weather Forecast

Advertisements
Track Severe Weather on mobile